Time;durP1;ratioP1;P1;durP2;ratioP2;P2;SDS_P1;SDS_P2;PMS_P1;PMS_P2;Temp;Humidity;BMP_temperature;BMP_pressure;BME280_temperature;BME280_humidity;BME280_pressure;Samples;Min_cycle;Max_cycle;Signal;HPM_P1;HPM_P2
2022/09/25 00:01:07;;;;;;;18.90;13.53;;;;;;;;;;759407;183;877207;-57
2022/09/25 00:03:33;;;;;;;18.30;12.17;;;;;;;;;;756364;183;918513;-58
2022/09/25 00:06:00;;;;;;;23.90;11.77;;;;;;;;;;767842;182;920218;-58
2022/09/25 00:08:25;;;;;;;14.50;11.70;;;;;;;;;;755606;183;919897;-57
2022/09/25 00:10:51;;;;;;;24.10;12.10;;;;;;;;;;758476;183;821332;-58
2022/09/25 00:13:17;;;;;;;15.77;10.80;;;;;;;;;;763633;184;918647;-57
2022/09/25 00:15:45;;;;;;;14.57;11.47;;;;;;;;;;757605;184;920084;-57
2022/09/25 00:18:11;;;;;;;20.53;12.10;;;;;;;;;;756752;183;946191;-57
2022/09/25 00:20:36;;;;;;;18.30;12.63;;;;;;;;;;755016;181;918822;-57
2022/09/25 00:23:02;;;;;;;23.53;12.07;;;;;;;;;;763692;183;852329;-57
2022/09/25 00:25:28;;;;;;;18.77;12.40;;;;;;;;;;756751;184;918812;-57
2022/09/25 00:27:54;;;;;;;15.77;11.30;;;;;;;;;;755993;183;923478;-58
2022/09/25 00:30:20;;;;;;;18.90;13.00;;;;;;;;;;761519;184;920044;-56
2022/09/25 00:32:46;;;;;;;19.83;11.77;;;;;;;;;;755913;183;919079;-57
2022/09/25 00:35:11;;;;;;;16.70;10.90;;;;;;;;;;756177;183;919335;-58
2022/09/25 00:37:37;;;;;;;19.53;11.63;;;;;;;;;;758613;183;816762;-57
2022/09/25 00:40:03;;;;;;;16.43;12.03;;;;;;;;;;757835;183;917263;-58
2022/09/25 00:42:29;;;;;;;17.70;10.90;;;;;;;;;;761489;183;816606;-58
2022/09/25 00:44:57;;;;;;;15.87;11.70;;;;;;;;;;759271;183;918567;-58
2022/09/25 00:47:27;;;;;;;18.20;13.00;;;;;;;;;;764579;183;816685;-57
2022/09/25 00:49:52;;;;;;;20.53;13.47;;;;;;;;;;758096;183;919559;-57
2022/09/25 00:52:18;;;;;;;17.80;13.20;;;;;;;;;;758106;184;916456;-57
2022/09/25 00:54:44;;;;;;;18.10;13.53;;;;;;;;;;760404;183;915752;-56
2022/09/25 00:57:10;;;;;;;20.50;12.40;;;;;;;;;;767594;180;918684;-55
2022/09/25 00:59:36;;;;;;;24.03;14.10;;;;;;;;;;765702;180;937198;-56
2022/09/25 01:02:02;;;;;;;19.50;13.70;;;;;;;;;;761967;183;807216;-56
2022/09/25 01:04:27;;;;;;;16.87;13.27;;;;;;;;;;767685;183;869772;-57
2022/09/25 01:06:53;;;;;;;17.07;14.07;;;;;;;;;;754673;184;918863;-58
2022/09/25 01:09:19;;;;;;;18.10;13.10;;;;;;;;;;756252;184;920420;-57
2022/09/25 01:11:45;;;;;;;19.77;13.20;;;;;;;;;;758261;183;914517;-57
2022/09/25 01:14:15;;;;;;;16.87;13.17;;;;;;;;;;753553;183;920454;-56
2022/09/25 01:16:38;;;;;;;24.40;14.90;;;;;;;;;;754476;183;919227;-55
2022/09/25 01:19:06;;;;;;;16.57;12.60;;;;;;;;;;762494;183;918726;-57
2022/09/25 01:21:32;;;;;;;19.53;13.60;;;;;;;;;;763907;183;918936;-55
2022/09/25 01:24:00;;;;;;;19.50;14.40;;;;;;;;;;756941;183;926402;-55
2022/09/25 01:26:41;;;;;;;20.92;12.75;;;;;;;;;;761942;183;1126988;-56
2022/09/25 01:29:08;;;;;;;27.50;13.70;;;;;;;;;;745400;183;921959;-57
2022/09/25 01:31:34;;;;;;;18.60;16.60;;;;;;;;;;764068;183;918965;-56
2022/09/25 01:34:00;;;;;;;16.87;12.77;;;;;;;;;;757154;183;817246;-57
2022/09/25 01:36:28;;;;;;;19.30;13.10;;;;;;;;;;753388;183;919174;-56
2022/09/25 01:39:04;;;;;;;17.27;13.50;;;;;;;;;;763886;183;919067;-56
2022/09/25 01:41:35;;;;;;;22.73;13.17;;;;;;;;;;774797;180;815283;-57
2022/09/25 01:44:02;;;;;;;17.37;12.40;;;;;;;;;;770977;180;917042;-56
2022/09/25 01:46:28;;;;;;;18.60;12.53;;;;;;;;;;771420;177;917818;-56
2022/09/25 01:48:53;;;;;;;16.83;12.63;;;;;;;;;;768980;180;908789;-57
2022/09/25 01:51:19;;;;;;;18.73;14.03;;;;;;;;;;760081;183;919377;-56
2022/09/25 01:53:45;;;;;;;16.23;12.33;;;;;;;;;;756191;183;915600;-56
2022/09/25 01:56:21;;;;;;;16.90;13.40;;;;;;;;;;759957;184;914733;-56
2022/09/25 01:58:47;;;;;;;16.20;11.80;;;;;;;;;;758677;184;919583;-57
2022/09/25 02:01:15;;;;;;;16.53;12.23;;;;;;;;;;776051;180;918963;-57
2022/09/25 02:03:42;;;;;;;17.37;11.82;;;;;;;;;;769124;177;918715;-55
2022/09/25 02:06:08;;;;;;;16.53;11.60;;;;;;;;;;770012;180;920205;-56
2022/09/25 02:08:33;;;;;;;20.93;12.50;;;;;;;;;;773751;180;918010;-57
2022/09/25 02:10:59;;;;;;;18.40;11.23;;;;;;;;;;754115;184;921280;-57
2022/09/25 02:13:25;;;;;;;17.63;12.20;;;;;;;;;;761120;184;918691;-56
2022/09/25 02:15:51;;;;;;;16.00;12.43;;;;;;;;;;759841;184;919009;-56
2022/09/25 02:20:49;;;;;;;15.60;11.97;;;;;;;;;;768221;180;917680;-56
2022/09/25 02:23:21;;;;;;;19.55;11.52;;;;;;;;;;765864;180;919458;-57
2022/09/25 02:25:46;;;;;;;18.57;13.13;;;;;;;;;;778903;180;919650;-56
2022/09/25 02:28:12;;;;;;;15.87;12.70;;;;;;;;;;773305;179;891485;-57
2022/09/25 02:30:38;;;;;;;16.47;12.03;;;;;;;;;;777154;177;913174;-56
2022/09/25 02:33:04;;;;;;;22.47;13.20;;;;;;;;;;758572;183;918769;-56
2022/09/25 02:35:30;;;;;;;17.37;13.33;;;;;;;;;;757847;183;819533;-56
2022/09/25 02:37:56;;;;;;;16.73;13.50;;;;;;;;;;763069;183;867956;-57
2022/09/25 02:40:21;;;;;;;19.98;13.32;;;;;;;;;;759676;183;919318;-56
2022/09/25 02:42:47;;;;;;;30.53;13.27;;;;;;;;;;756879;183;917348;-56
2022/09/25 02:45:19;;;;;;;16.00;12.90;;;;;;;;;;756003;183;881479;-56
2022/09/25 02:47:45;;;;;;;15.23;12.90;;;;;;;;;;751866;184;918785;-56
2022/09/25 02:50:12;;;;;;;16.10;12.90;;;;;;;;;;754540;183;919734;-56
2022/09/25 02:52:39;;;;;;;17.70;13.33;;;;;;;;;;761765;183;918088;-56
2022/09/25 02:55:06;;;;;;;16.43;13.27;;;;;;;;;;751766;183;920116;-57
2022/09/25 02:57:35;;;;;;;21.67;14.53;;;;;;;;;;756662;183;919094;-56
2022/09/25 03:00:01;;;;;;;21.53;13.20;;;;;;;;;;763393;183;918921;-57
2022/09/25 03:02:27;;;;;;;20.33;13.90;;;;;;;;;;757671;183;919620;-56
2022/09/25 03:04:53;;;;;;;21.80;15.80;;;;;;;;;;763281;180;920010;-56
2022/09/25 03:07:18;;;;;;;14.97;13.20;;;;;;;;;;771342;180;927306;-57
2022/09/25 03:09:45;;;;;;;16.03;13.53;;;;;;;;;;774903;180;918859;-56
2022/09/25 03:12:10;;;;;;;21.10;16.67;;;;;;;;;;766331;180;918418;-56
2022/09/25 03:14:36;;;;;;;20.17;14.43;;;;;;;;;;755678;183;922366;-57
2022/09/25 03:17:03;;;;;;;15.82;13.00;;;;;;;;;;758621;183;921408;-55
2022/09/25 03:19:28;;;;;;;21.10;12.83;;;;;;;;;;756920;183;917025;-56
2022/09/25 03:21:54;;;;;;;12.00;10.53;;;;;;;;;;755324;183;926868;-56
2022/09/25 03:24:19;;;;;;;16.70;12.68;;;;;;;;;;759741;183;816780;-56
2022/09/25 03:26:45;;;;;;;22.30;13.83;;;;;;;;;;757156;183;919727;-57
2022/09/25 03:29:11;;;;;;;19.70;13.73;;;;;;;;;;760073;183;907624;-56
2022/09/25 03:31:37;;;;;;;18.77;14.27;;;;;;;;;;758824;184;880937;-57
2022/09/25 03:34:03;;;;;;;18.00;14.30;;;;;;;;;;768455;182;814848;-55
2022/09/25 03:36:29;;;;;;;17.57;14.23;;;;;;;;;;757550;183;858217;-56
2022/09/25 03:38:57;;;;;;;22.00;16.03;;;;;;;;;;761536;183;1003111;-56
2022/09/25 03:41:23;;;;;;;19.50;13.83;;;;;;;;;;769383;182;821035;-55
2022/09/25 03:43:50;;;;;;;18.87;14.07;;;;;;;;;;755265;183;920011;-57
2022/09/25 03:46:15;;;;;;;22.17;15.23;;;;;;;;;;759772;184;826128;-56
2022/09/25 03:48:41;;;;;;;18.70;15.00;;;;;;;;;;762856;183;919797;-56
2022/09/25 03:51:07;;;;;;;17.23;14.20;;;;;;;;;;757603;183;920862;-57
2022/09/25 03:53:32;;;;;;;22.50;14.07;;;;;;;;;;756724;182;820519;-56
2022/09/25 03:56:00;;;;;;;20.13;13.93;;;;;;;;;;761560;183;919396;-56
2022/09/25 03:58:26;;;;;;;19.83;14.67;;;;;;;;;;762387;183;817552;-56
2022/09/25 04:00:55;;;;;;;18.47;13.83;;;;;;;;;;759091;183;815540;-56
2022/09/25 04:03:18;;;;;;;19.07;14.50;;;;;;;;;;759712;183;817298;-56
2022/09/25 04:05:45;;;;;;;18.00;14.20;;;;;;;;;;759465;183;919442;-56
2022/09/25 04:08:09;;;;;;;20.90;14.60;;;;;;;;;;758721;183;918144;-56
2022/09/25 04:10:37;;;;;;;21.23;14.33;;;;;;;;;;760143;183;920174;-55
2022/09/25 04:13:01;;;;;;;21.00;15.70;;;;;;;;;;768182;183;919025;-55
2022/09/25 04:15:27;;;;;;;21.60;15.40;;;;;;;;;;766092;182;937400;-55
2022/09/25 04:17:53;;;;;;;18.97;14.80;;;;;;;;;;771631;180;872266;-56
2022/09/25 04:20:19;;;;;;;19.17;15.20;;;;;;;;;;771207;177;917971;-56
2022/09/25 04:22:44;;;;;;;24.67;15.27;;;;;;;;;;770589;180;919725;-56
2022/09/25 04:25:10;;;;;;;19.97;15.43;;;;;;;;;;754360;183;918454;-56
2022/09/25 04:27:36;;;;;;;20.60;15.90;;;;;;;;;;751943;183;918147;-55
2022/09/25 04:30:02;;;;;;;26.50;16.60;;;;;;;;;;761822;184;918350;-56
2022/09/25 04:35:00;;;;;;;19.47;16.37;;;;;;;;;;755614;183;922949;-59
2022/09/25 04:37:26;;;;;;;29.87;17.23;;;;;;;;;;760952;183;923194;-56
2022/09/25 04:39:52;;;;;;;22.43;16.43;;;;;;;;;;767773;182;919815;-56
2022/09/25 04:42:23;;;;;;;21.27;15.97;;;;;;;;;;766870;180;816619;-55
2022/09/25 04:44:44;;;;;;;22.05;16.67;;;;;;;;;;758314;183;919445;-56
2022/09/25 04:47:10;;;;;;;21.53;17.23;;;;;;;;;;760250;183;917511;-55
2022/09/25 04:49:37;;;;;;;22.70;16.50;;;;;;;;;;756666;183;918948;-57
2022/09/25 04:52:02;;;;;;;25.15;16.75;;;;;;;;;;756015;182;916609;-57
2022/09/25 04:54:27;;;;;;;22.77;16.17;;;;;;;;;;764735;183;917346;-55
2022/09/25 04:56:53;;;;;;;23.63;16.87;;;;;;;;;;773327;180;919233;-56
2022/09/25 04:59:19;;;;;;;21.63;15.90;;;;;;;;;;762194;183;919344;-56
2022/09/25 05:01:45;;;;;;;24.47;18.00;;;;;;;;;;766493;183;814395;-56
2022/09/25 05:04:11;;;;;;;27.07;19.10;;;;;;;;;;758655;183;919970;-55
2022/09/25 05:06:37;;;;;;;30.03;21.93;;;;;;;;;;758096;183;918874;-55
2022/09/25 05:09:02;;;;;;;28.20;20.10;;;;;;;;;;757121;183;918479;-57
2022/09/25 05:11:28;;;;;;;22.43;17.60;;;;;;;;;;762535;183;918648;-55
2022/09/25 05:13:54;;;;;;;26.47;19.47;;;;;;;;;;760603;183;819422;-55
2022/09/25 05:16:20;;;;;;;24.37;19.10;;;;;;;;;;757035;184;921099;-56
2022/09/25 05:18:46;;;;;;;28.43;18.43;;;;;;;;;;761740;184;919205;-56
2022/09/25 05:21:12;;;;;;;23.00;17.57;;;;;;;;;;757091;183;919338;-57
2022/09/25 05:23:38;;;;;;;23.53;16.57;;;;;;;;;;758459;183;919747;-55
2022/09/25 05:26:03;;;;;;;24.37;18.27;;;;;;;;;;766299;183;919107;-56
2022/09/25 05:28:30;;;;;;;24.60;19.13;;;;;;;;;;761239;182;817080;-56
2022/09/25 05:30:59;;;;;;;22.63;18.43;;;;;;;;;;759035;183;864218;-57
2022/09/25 05:33:24;;;;;;;21.80;17.90;;;;;;;;;;762441;180;915632;-57
2022/09/25 05:35:49;;;;;;;23.87;18.60;;;;;;;;;;750756;186;915147;-56
2022/09/25 05:38:15;;;;;;;26.23;18.10;;;;;;;;;;738422;187;913808;-56
2022/09/25 05:40:42;;;;;;;27.17;20.50;;;;;;;;;;750299;185;920335;-55
2022/09/25 05:43:07;;;;;;;27.47;22.40;;;;;;;;;;773229;180;922761;-55
2022/09/25 05:45:34;;;;;;;27.80;21.17;;;;;;;;;;756467;183;918963;-57
2022/09/25 05:48:00;;;;;;;22.87;19.03;;;;;;;;;;753437;183;923028;-55
2022/09/25 05:50:25;;;;;;;28.63;19.97;;;;;;;;;;758989;184;921574;-55
2022/09/25 05:52:51;;;;;;;25.83;19.87;;;;;;;;;;757780;183;918244;-57
2022/09/25 05:55:17;;;;;;;23.40;19.53;;;;;;;;;;756574;183;922021;-57
2022/09/25 05:57:43;;;;;;;26.27;18.73;;;;;;;;;;756746;183;919911;-57
2022/09/25 06:00:11;;;;;;;28.23;19.60;;;;;;;;;;762678;183;919569;-56
2022/09/25 06:02:36;;;;;;;29.23;17.20;;;;;;;;;;759933;183;911341;-56
2022/09/25 06:05:01;;;;;;;25.50;17.70;;;;;;;;;;760302;182;910001;-55
2022/09/25 06:07:27;;;;;;;36.97;25.83;;;;;;;;;;764411;183;935297;-57
2022/09/25 06:09:53;;;;;;;39.17;23.70;;;;;;;;;;755536;183;920129;-56
2022/09/25 06:12:19;;;;;;;25.33;19.47;;;;;;;;;;756591;183;813882;-55
2022/09/25 06:14:45;;;;;;;31.30;22.50;;;;;;;;;;770394;182;820008;-57
2022/09/25 06:17:11;;;;;;;41.30;24.13;;;;;;;;;;766838;179;897757;-56
2022/09/25 06:19:36;;;;;;;25.08;19.80;;;;;;;;;;767920;181;918596;-57
2022/09/25 06:22:02;;;;;;;24.63;19.43;;;;;;;;;;762677;183;711592;-57
2022/09/25 06:24:28;;;;;;;26.80;20.03;;;;;;;;;;760220;183;811103;-56
2022/09/25 06:26:54;;;;;;;23.80;18.60;;;;;;;;;;759574;183;888563;-55
2022/09/25 06:29:20;;;;;;;28.55;19.15;;;;;;;;;;765369;179;921618;-56
2022/09/25 06:31:46;;;;;;;26.53;20.03;;;;;;;;;;765660;183;917195;-55
2022/09/25 06:34:12;;;;;;;26.57;19.23;;;;;;;;;;760439;182;818064;-56
2022/09/25 06:36:37;;;;;;;26.52;18.30;;;;;;;;;;764767;181;809820;-56
2022/09/25 06:39:03;;;;;;;25.77;20.17;;;;;;;;;;764600;183;917176;-55
2022/09/25 06:41:29;;;;;;;30.77;24.77;;;;;;;;;;756313;183;919440;-55
2022/09/25 06:43:55;;;;;;;31.00;22.23;;;;;;;;;;758552;183;816747;-55
2022/09/25 06:46:22;;;;;;;26.83;19.80;;;;;;;;;;759451;183;918540;-56
2022/09/25 06:48:49;;;;;;;26.70;20.17;;;;;;;;;;764594;180;919583;-55
2022/09/25 06:51:17;;;;;;;28.17;20.80;;;;;;;;;;766860;177;751218;-57
2022/09/25 06:53:41;;;;;;;24.97;20.13;;;;;;;;;;762439;183;637512;-56
2022/09/25 06:56:07;;;;;;;28.13;21.77;;;;;;;;;;763799;183;617220;-55
2022/09/25 06:58:34;;;;;;;22.70;18.70;;;;;;;;;;756359;183;816404;-56
2022/09/25 07:00:58;;;;;;;25.33;17.73;;;;;;;;;;752299;184;918800;-57
2022/09/25 07:05:58;;;;;;;23.30;17.07;;;;;;;;;;773483;177;916654;-57
2022/09/25 07:08:23;;;;;;;24.80;17.27;;;;;;;;;;762370;180;913239;-55
2022/09/25 07:10:49;;;;;;;22.63;18.23;;;;;;;;;;755803;183;822975;-55
2022/09/25 07:13:16;;;;;;;28.53;19.87;;;;;;;;;;757788;182;918886;-55
2022/09/25 07:15:41;;;;;;;19.23;16.50;;;;;;;;;;770303;176;918640;-56
2022/09/25 07:18:09;;;;;;;24.63;21.27;;;;;;;;;;762206;183;915864;-57
2022/09/25 07:20:35;;;;;;;23.80;17.90;;;;;;;;;;763215;182;906724;-57
2022/09/25 07:23:02;;;;;;;23.40;17.43;;;;;;;;;;760875;181;922009;-55
2022/09/25 07:25:27;;;;;;;32.20;25.10;;;;;;;;;;761569;183;819552;-55
2022/09/25 07:27:53;;;;;;;33.93;25.13;;;;;;;;;;753188;183;988838;-56
2022/09/25 07:30:19;;;;;;;33.75;21.35;;;;;;;;;;763477;183;816802;-57
2022/09/25 07:32:44;;;;;;;64.60;41.60;;;;;;;;;;755927;183;919092;-56
2022/09/25 07:35:10;;;;;;;73.93;45.67;;;;;;;;;;758369;183;919551;-57
2022/09/25 07:37:36;;;;;;;66.80;44.03;;;;;;;;;;759787;183;918433;-56
2022/09/25 07:40:02;;;;;;;38.50;29.27;;;;;;;;;;758175;183;727568;-55
2022/09/25 07:42:28;;;;;;;33.00;24.13;;;;;;;;;;757764;183;817077;-56
2022/09/25 07:44:54;;;;;;;29.73;21.13;;;;;;;;;;760441;183;816822;-56
2022/09/25 07:47:20;;;;;;;24.93;19.83;;;;;;;;;;758698;183;866449;-55
2022/09/25 07:49:45;;;;;;;27.85;20.35;;;;;;;;;;765415;180;914569;-56
2022/09/25 07:52:12;;;;;;;32.20;22.40;;;;;;;;;;757976;183;919977;-57
2022/09/25 07:54:40;;;;;;;38.90;26.87;;;;;;;;;;748283;186;917706;-57
2022/09/25 07:57:06;;;;;;;37.67;28.03;;;;;;;;;;762396;180;712133;-55
2022/09/25 07:59:31;;;;;;;30.48;25.40;;;;;;;;;;764198;180;919327;-56
2022/09/25 08:01:57;;;;;;;30.53;24.17;;;;;;;;;;760391;183;843990;-56
2022/09/25 08:04:23;;;;;;;23.57;18.47;;;;;;;;;;773819;180;619758;-56
2022/09/25 08:06:49;;;;;;;21.70;17.33;;;;;;;;;;758062;181;816137;-56
2022/09/25 08:09:15;;;;;;;37.30;22.97;;;;;;;;;;763455;183;822243;-57
2022/09/25 08:11:41;;;;;;;48.63;27.50;;;;;;;;;;758537;183;829460;-57
2022/09/25 08:14:07;;;;;;;45.47;30.23;;;;;;;;;;758473;183;750758;-55
2022/09/25 08:16:32;;;;;;;23.00;18.10;;;;;;;;;;756207;183;918464;-57
2022/09/25 08:18:58;;;;;;;22.83;17.93;;;;;;;;;;771505;180;713009;-56
2022/09/25 08:21:24;;;;;;;25.50;20.70;;;;;;;;;;760156;183;888937;-55
2022/09/25 08:23:50;;;;;;;21.30;15.87;;;;;;;;;;759008;183;741356;-55
2022/09/25 08:26:16;;;;;;;18.10;15.33;;;;;;;;;;760928;183;878793;-57
2022/09/25 08:28:42;;;;;;;23.37;17.57;;;;;;;;;;757988;182;815536;-56
2022/09/25 08:31:08;;;;;;;67.77;41.90;;;;;;;;;;758685;184;632538;-56
2022/09/25 08:33:33;;;;;;;43.17;31.60;;;;;;;;;;763424;184;627633;-56
2022/09/25 08:35:59;;;;;;;26.63;20.93;;;;;;;;;;761869;184;819734;-56
2022/09/25 08:38:25;;;;;;;31.00;22.13;;;;;;;;;;759373;183;919681;-55
2022/09/25 08:40:55;;;;;;;23.30;18.57;;;;;;;;;;757847;183;815905;-57
2022/09/25 08:43:20;;;;;;;20.87;18.10;;;;;;;;;;756283;183;910296;-55
2022/09/25 08:50:52;;;;;;;27.10;18.97;;;;;;;;;;758401;183;918364;-57
2022/09/25 08:53:18;;;;;;;35.53;27.00;;;;;;;;;;760520;183;779615;-56
2022/09/25 08:58:16;;;;;;;42.77;30.27;;;;;;;;;;759667;183;815988;-57
2022/09/25 09:00:42;;;;;;;49.50;29.90;;;;;;;;;;758083;183;716404;-57
2022/09/25 09:03:08;;;;;;;34.90;25.97;;;;;;;;;;760739;183;916234;-57
2022/09/25 09:05:34;;;;;;;29.33;21.53;;;;;;;;;;754641;183;920452;-57
2022/09/25 09:08:03;;;;;;;28.53;21.40;;;;;;;;;;758121;183;914107;-57
2022/09/25 09:10:43;;;;;;;26.73;20.47;;;;;;;;;;763683;183;625967;-56
2022/09/25 09:13:08;;;;;;;21.70;17.03;;;;;;;;;;761797;183;835311;-56
2022/09/25 09:15:38;;;;;;;26.37;20.20;;;;;;;;;;760518;183;641223;-57
2022/09/25 09:18:20;;;;;;;21.25;14.70;;;;;;;;;;756679;183;917466;-57
2022/09/25 09:20:49;;;;;;;16.03;13.30;;;;;;;;;;755536;183;898578;-57
2022/09/25 09:23:15;;;;;;;17.50;12.50;;;;;;;;;;756389;183;923348;-57
2022/09/25 09:25:42;;;;;;;17.20;13.00;;;;;;;;;;758647;183;819703;-57
2022/09/25 09:28:23;;;;;;;17.40;12.87;;;;;;;;;;756518;183;946352;-56
2022/09/25 09:31:03;;;;;;;26.53;19.40;;;;;;;;;;751328;182;816919;-57
2022/09/25 09:33:29;;;;;;;18.30;12.87;;;;;;;;;;755407;181;924352;-56
2022/09/25 09:36:11;;;;;;;19.03;14.10;;;;;;;;;;756322;183;918571;-56
2022/09/25 09:38:36;;;;;;;15.87;12.50;;;;;;;;;;760278;180;816353;-57
2022/09/25 09:41:04;;;;;;;13.00;11.07;;;;;;;;;;772942;179;914284;-56
2022/09/25 09:43:30;;;;;;;13.80;11.83;;;;;;;;;;770890;177;818810;-56
2022/09/25 09:45:55;;;;;;;14.67;11.43;;;;;;;;;;758594;183;824293;-56
2022/09/25 09:48:40;;;;;;;15.47;11.43;;;;;;;;;;762230;183;770357;-57
2022/09/25 09:51:16;;;;;;;17.93;12.13;;;;;;;;;;763208;182;817291;-57
2022/09/25 09:53:44;;;;;;;13.60;11.80;;;;;;;;;;759160;183;858878;-57
2022/09/25 09:56:10;;;;;;;17.47;11.30;;;;;;;;;;756569;183;708984;-56
2022/09/25 09:58:36;;;;;;;14.27;11.70;;;;;;;;;;756124;183;720261;-54
2022/09/25 10:01:02;;;;;;;13.10;11.37;;;;;;;;;;761840;183;710577;-56
2022/09/25 10:03:28;;;;;;;13.87;11.70;;;;;;;;;;755897;183;916797;-57
2022/09/25 10:05:54;;;;;;;15.20;12.40;;;;;;;;;;753328;183;919437;-55
2022/09/25 10:08:20;;;;;;;12.00;10.73;;;;;;;;;;757096;183;920374;-55
2022/09/25 10:10:46;;;;;;;12.60;10.90;;;;;;;;;;759442;183;919159;-56
2022/09/25 10:13:12;;;;;;;11.90;9.93;;;;;;;;;;761350;183;919667;-56
2022/09/25 10:15:39;;;;;;;15.10;11.40;;;;;;;;;;754882;183;922311;-54
2022/09/25 10:18:05;;;;;;;14.30;11.30;;;;;;;;;;760565;183;918585;-56
2022/09/25 10:20:32;;;;;;;17.13;11.10;;;;;;;;;;757532;183;920990;-54
2022/09/25 10:22:58;;;;;;;15.00;12.43;;;;;;;;;;752817;183;818858;-54
2022/09/25 10:25:39;;;;;;;15.88;12.30;;;;;;;;;;762431;183;632495;-55
2022/09/25 10:28:11;;;;;;;12.40;9.97;;;;;;;;;;745902;184;794347;-57
2022/09/25 10:30:37;;;;;;;13.07;11.77;;;;;;;;;;765950;182;876196;-54
2022/09/25 10:33:05;;;;;;;10.77;9.67;;;;;;;;;;757398;183;750402;-54
2022/09/25 10:35:35;;;;;;;12.00;9.63;;;;;;;;;;754799;181;918929;-55
2022/09/25 10:38:00;;;;;;;12.90;10.17;;;;;;;;;;761810;183;916741;-54
2022/09/25 10:40:27;;;;;;;11.67;9.63;;;;;;;;;;754849;181;922484;-54
2022/09/25 10:42:59;;;;;;;11.00;9.27;;;;;;;;;;759113;183;919150;-54
2022/09/25 10:45:25;;;;;;;11.30;9.60;;;;;;;;;;757407;183;919362;-55
2022/09/25 10:50:23;;;;;;;13.97;9.80;;;;;;;;;;777325;179;854520;-54
2022/09/25 10:52:49;;;;;;;12.63;9.93;;;;;;;;;;766377;179;922510;-54
2022/09/25 10:55:19;;;;;;;11.55;9.77;;;;;;;;;;760307;183;837523;-55
2022/09/25 10:57:45;;;;;;;9.43;8.07;;;;;;;;;;761280;182;919477;-56
2022/09/25 11:00:16;;;;;;;15.73;9.13;;;;;;;;;;758248;181;919058;-54
2022/09/25 11:02:42;;;;;;;15.23;9.53;;;;;;;;;;756374;182;915727;-55
2022/09/25 11:05:07;;;;;;;10.00;8.53;;;;;;;;;;756099;183;845393;-55
2022/09/25 11:07:33;;;;;;;9.30;8.17;;;;;;;;;;767309;183;746106;-54
2022/09/25 11:09:59;;;;;;;11.23;8.00;;;;;;;;;;755908;183;913848;-55
2022/09/25 11:12:25;;;;;;;11.25;7.70;;;;;;;;;;757514;183;917998;-55
2022/09/25 11:14:56;;;;;;;9.70;7.43;;;;;;;;;;762346;184;894397;-55
2022/09/25 11:17:26;;;;;;;7.93;6.47;;;;;;;;;;760049;183;928948;-55
2022/09/25 11:19:52;;;;;;;12.53;6.47;;;;;;;;;;757498;183;922464;-56
2022/09/25 11:22:18;;;;;;;9.43;7.60;;;;;;;;;;755217;183;919052;-55
2022/09/25 11:24:59;;;;;;;9.33;7.00;;;;;;;;;;758773;183;924584;-56
2022/09/25 11:27:26;;;;;;;11.37;7.13;;;;;;;;;;759617;184;918542;-56
2022/09/25 11:29:53;;;;;;;7.63;6.90;;;;;;;;;;749936;185;918399;-55
2022/09/25 11:32:19;;;;;;;10.00;7.83;;;;;;;;;;748471;184;919416;-56
2022/09/25 11:34:51;;;;;;;8.23;7.40;;;;;;;;;;747245;187;815685;-55
2022/09/25 11:37:17;;;;;;;10.80;6.73;;;;;;;;;;741375;188;815852;-56
2022/09/25 11:42:16;;;;;;;9.95;7.93;;;;;;;;;;748536;185;819025;-55
2022/09/25 11:44:44;;;;;;;9.73;7.37;;;;;;;;;;750210;185;910893;-56
2022/09/25 11:47:16;;;;;;;8.77;7.60;;;;;;;;;;776260;180;812619;-55
2022/09/25 11:49:42;;;;;;;7.50;6.73;;;;;;;;;;764511;179;922116;-55
2022/09/25 11:52:16;;;;;;;10.27;7.53;;;;;;;;;;764807;180;919832;-55
2022/09/25 11:54:58;;;;;;;10.27;7.67;;;;;;;;;;752581;183;920187;-57
2022/09/25 11:57:29;;;;;;;9.43;7.73;;;;;;;;;;749244;183;919204;-57
2022/09/25 11:59:56;;;;;;;9.73;8.83;;;;;;;;;;765491;183;855970;-56
2022/09/25 12:02:27;;;;;;;9.33;7.57;;;;;;;;;;761810;183;818176;-52
2022/09/25 12:04:55;;;;;;;12.90;7.50;;;;;;;;;;756556;182;926636;-59
2022/09/25 12:07:26;;;;;;;11.63;9.50;;;;;;;;;;752206;184;913466;-56
2022/09/25 12:10:02;;;;;;;10.77;8.47;;;;;;;;;;774564;179;700800;-55
2022/09/25 12:12:31;;;;;;;13.90;8.80;;;;;;;;;;761163;183;915592;-58
2022/09/25 12:15:00;;;;;;;11.47;8.90;;;;;;;;;;757391;183;915936;-59
2022/09/25 12:17:28;;;;;;;9.80;8.80;;;;;;;;;;756670;183;835007;-60
2022/09/25 12:19:55;;;;;;;12.40;9.10;;;;;;;;;;754672;183;919359;-57
2022/09/25 12:22:26;;;;;;;10.53;9.30;;;;;;;;;;759693;183;919187;-56
2022/09/25 12:25:05;;;;;;;10.80;9.03;;;;;;;;;;757077;183;819153;-57
2022/09/25 12:27:43;;;;;;;11.40;9.82;;;;;;;;;;755789;183;918876;-57
2022/09/25 12:30:15;;;;;;;10.97;8.23;;;;;;;;;;757225;183;818399;-60
2022/09/25 12:32:45;;;;;;;10.17;8.30;;;;;;;;;;758126;183;918680;-59
2022/09/25 12:35:25;;;;;;;10.07;8.03;;;;;;;;;;763197;183;919642;-59
2022/09/25 12:37:52;;;;;;;10.43;9.23;;;;;;;;;;763293;183;821977;-59
2022/09/25 12:40:18;;;;;;;12.30;8.60;;;;;;;;;;755054;183;922008;-60
2022/09/25 12:42:44;;;;;;;13.37;9.27;;;;;;;;;;753773;183;932956;-56
2022/09/25 12:45:15;;;;;;;11.77;9.10;;;;;;;;;;758201;183;915848;-59
2022/09/25 12:47:44;;;;;;;11.00;9.90;;;;;;;;;;765055;183;919305;-56
2022/09/25 12:50:08;;;;;;;12.90;9.70;;;;;;;;;;757415;183;827756;-59
2022/09/25 12:52:35;;;;;;;12.17;10.37;;;;;;;;;;757005;183;818608;-59
2022/09/25 12:55:01;;;;;;;12.00;9.03;;;;;;;;;;758502;184;918190;-56
2022/09/25 12:57:27;;;;;;;14.33;9.23;;;;;;;;;;757436;183;920237;-59
2022/09/25 12:59:53;;;;;;;13.53;8.57;;;;;;;;;;754558;183;916469;-57
2022/09/25 13:02:20;;;;;;;11.77;10.60;;;;;;;;;;753233;181;920867;-59
2022/09/25 13:04:48;;;;;;;11.77;10.33;;;;;;;;;;759380;183;916602;-58
2022/09/25 13:07:19;;;;;;;15.00;11.20;;;;;;;;;;755503;183;918750;-56
2022/09/25 13:09:45;;;;;;;11.23;10.03;;;;;;;;;;762300;183;884965;-59
2022/09/25 13:12:15;;;;;;;13.97;9.50;;;;;;;;;;762764;182;819865;-57
2022/09/25 13:14:41;;;;;;;12.93;9.90;;;;;;;;;;762074;183;919897;-56
2022/09/25 13:17:07;;;;;;;11.33;9.07;;;;;;;;;;761394;183;635183;-57
2022/09/25 13:19:33;;;;;;;13.30;11.00;;;;;;;;;;753948;183;915289;-59
2022/09/25 13:22:09;;;;;;;12.37;10.53;;;;;;;;;;759887;183;921729;-59
2022/09/25 13:24:51;;;;;;;12.45;9.88;;;;;;;;;;765557;183;918070;-58
2022/09/25 13:27:17;;;;;;;11.57;10.20;;;;;;;;;;763095;181;919475;-59
2022/09/25 13:29:42;;;;;;;12.70;9.03;;;;;;;;;;759390;183;910489;-56
2022/09/25 13:32:17;;;;;;;14.27;10.60;;;;;;;;;;756689;183;819715;-59
2022/09/25 13:34:42;;;;;;;10.63;9.53;;;;;;;;;;756961;183;816191;-59
2022/09/25 13:37:08;;;;;;;12.73;9.63;;;;;;;;;;765640;183;617198;-57
2022/09/25 13:42:15;;;;;;;14.00;9.17;;;;;;;;;;757841;183;920464;-57
2022/09/25 13:44:49;;;;;;;13.87;9.97;;;;;;;;;;755544;184;881617;-61
2022/09/25 13:47:37;;;;;;;18.03;9.40;;;;;;;;;;760510;184;813524;-60
2022/09/25 13:50:04;;;;;;;14.57;10.50;;;;;;;;;;755072;182;920659;-58
2022/09/25 13:52:30;;;;;;;11.13;9.73;;;;;;;;;;771816;180;816338;-58
2022/09/25 13:55:02;;;;;;;10.67;9.40;;;;;;;;;;770273;180;817211;-58
2022/09/25 13:57:46;;;;;;;13.40;9.77;;;;;;;;;;760173;183;816612;-56
2022/09/25 14:00:14;;;;;;;13.47;11.40;;;;;;;;;;752963;183;918588;-56
2022/09/25 14:02:40;;;;;;;15.23;9.60;;;;;;;;;;758997;184;918894;-56
2022/09/25 14:05:05;;;;;;;12.03;10.70;;;;;;;;;;756155;184;819796;-56
2022/09/25 14:07:32;;;;;;;13.80;10.87;;;;;;;;;;758794;184;896510;-58
2022/09/25 14:09:57;;;;;;;10.80;9.70;;;;;;;;;;755688;184;936042;-56
2022/09/25 14:12:25;;;;;;;14.60;11.03;;;;;;;;;;765053;183;918992;-58
2022/09/25 14:14:52;;;;;;;12.13;10.10;;;;;;;;;;761899;183;916533;-59
2022/09/25 14:17:17;;;;;;;13.40;11.40;;;;;;;;;;757839;182;919420;-59
2022/09/25 14:19:42;;;;;;;15.23;11.83;;;;;;;;;;761001;184;919113;-58
2022/09/25 14:22:08;;;;;;;14.27;11.07;;;;;;;;;;760119;182;714549;-58
2022/09/25 14:24:35;;;;;;;12.60;11.27;;;;;;;;;;762646;182;813419;-59
2022/09/25 14:27:00;;;;;;;12.90;11.40;;;;;;;;;;763185;183;631077;-56
2022/09/25 14:29:26;;;;;;;12.40;9.83;;;;;;;;;;770621;182;627716;-56
2022/09/25 14:31:58;;;;;;;15.43;12.03;;;;;;;;;;765755;183;617298;-56